Brogan, Oregon
Current Conditions -  °F | °C
As of 9:53 PM on Monday 20 Oct 2014 (Local Time) from KONO Reporting Station
Clear Clear  
Wind Chill: 56°   Ceiling: Unl
Heat Index: 56°   Visibility: 10mi
Dew Point: 35°   Wind: 16mph
Humidity: 45%   Direction: 240°WSW
Pressure: 29.71"   Gusts: NA
Location:  44.25°N, 117.52°W
Report Text: KONO 210353Z AUTO 24014KT 10SM CLR 13/02 A2971 RMK AO2 PRESRR SLP062 T01330017
Loading
Personal Weather Stations






























Interactive Weather Map
Tropical Storm Tracking
New forecast layout! Learn more

10-Day Weather Forecast

Advertisements
Track Severe Weather on mobile